Time;durP1;ratioP1;P1;durP2;ratioP2;P2;SDS_P1;SDS_P2;PMS_P1;PMS_P2;Temp;Humidity;BMP_temperature;BMP_pressure;BME280_temperature;BME280_humidity;BME280_pressure;Samples;Min_cycle;Max_cycle;Signal;HPM_P1;HPM_P2
2022/10/16 00:00:42;;;;;;;3.00;0.90;;;18.10;91.50;;;;;;10577987;27;20075;-39
2022/10/16 00:05:45;;;;;;;1.73;0.60;;;18.60;90.40;;;;;;10578791;27;20446;-40
2022/10/16 00:10:48;;;;;;;2.53;0.93;;;17.90;90.70;;;;;;10584895;27;20082;-39
2022/10/16 00:15:50;;;;;;;1.20;0.45;;;17.30;92.40;;;;;;10580935;27;20126;-41
2022/10/16 00:20:52;;;;;;;1.93;0.80;;;17.50;94.00;;;;;;10596890;27;20475;-40
2022/10/16 00:26:00;;;;;;;2.75;0.80;;;18.40;89.30;;;;;;10582780;27;20043;-40
2022/10/16 00:31:05;;;;;;;1.92;0.65;;;16.70;93.80;;;;;;10585395;27;20040;-40
2022/10/16 00:36:10;;;;;;;1.17;0.65;;;16.70;92.20;;;;;;10587924;27;20465;-40
2022/10/16 00:41:16;;;;;;;1.60;0.60;;;17.90;91.20;;;;;;10577968;27;20047;-40
2022/10/16 00:46:21;;;;;;;1.42;0.50;;;17.90;90.80;;;;;;10575218;28;20101;-39
2022/10/16 00:51:29;;;;;;;0.63;0.45;;;17.20;92.60;;;;;;10594184;27;20126;-40
2022/10/16 00:56:33;;;;;;;1.15;0.50;;;17.30;94.10;;;;;;10583756;27;20683;-40
2022/10/16 01:01:35;;;;;;;2.28;0.80;;;18.00;90.60;;;;;;10586492;27;20116;-43
2022/10/16 01:06:43;;;;;;;1.95;0.80;;;17.40;91.70;;;;;;10563396;27;20075;-41
2022/10/16 01:11:56;;;;;;;3.08;0.93;;;18.10;90.90;;;;;;10580720;27;20096;-41
2022/10/16 01:17:00;;;;;;;;;;;17.80;92.60;;;;;;10590905;27;20071;-41
2022/10/16 01:22:03;;;;;;;1.33;0.70;;;17.80;91.90;;;;;;10589456;28;19971;-42
2022/10/16 01:27:15;;;;;;;2.22;0.45;;;17.80;92.20;;;;;;10572979;28;20671;-40
2022/10/16 01:32:21;;;;;;;1.33;0.80;;;17.60;92.20;;;;;;10579126;28;20548;-40
2022/10/16 01:37:33;;;;;;;1.83;0.55;;;17.60;92.30;;;;;;10598720;28;20044;-41
2022/10/16 01:42:41;;;;;;;3.60;0.40;;;17.00;91.50;;;;;;10594475;27;20145;-40
2022/10/16 01:47:44;;;;;;;3.13;0.70;;;17.30;93.50;;;;;;10588549;27;20079;-40
2022/10/16 01:52:50;;;;;;;1.65;0.82;;;18.00;91.70;;;;;;10601990;27;20062;-40
2022/10/16 01:57:55;;;;;;;3.40;0.63;;;18.50;90.90;;;;;;10603807;27;20419;-41
2022/10/16 02:03:00;;;;;;;2.67;0.60;;;18.80;90.30;;;;;;10599057;27;20555;-41
2022/10/16 02:08:03;;;;;;;4.13;0.60;;;19.10;87.60;;;;;;10598402;27;20043;-42
2022/10/16 02:13:10;;;;;;;2.83;0.52;;;19.00;89.30;;;;;;10593648;27;20047;-41
2022/10/16 02:18:12;;;;;;;1.33;0.70;;;19.20;87.50;;;;;;10598627;27;20126;-40
2022/10/16 02:23:22;;;;;;;4.85;1.00;;;19.10;88.60;;;;;;10598151;27;20078;-41
2022/10/16 02:28:33;;;;;;;3.20;0.52;;;19.00;88.60;;;;;;10589711;27;20052;-41
2022/10/16 02:33:37;;;;;;;3.13;0.82;;;19.10;88.50;;;;;;10588995;27;20082;-42
2022/10/16 02:38:40;;;;;;;1.33;0.40;;;19.30;87.50;;;;;;10605006;27;20047;-42
2022/10/16 02:43:43;;;;;;;0.57;0.40;;;19.70;85.30;;;;;;10599378;27;20043;-40
2022/10/16 02:48:45;;;;;;;1.35;0.55;;;19.00;90.80;;;;;;10586544;27;20070;-40
2022/10/16 02:53:47;;;;;;;1.73;0.45;;;18.70;87.60;;;;;;10580781;27;20460;-42
2022/10/16 02:58:50;;;;;;;0.82;0.57;;;18.10;91.20;;;;;;10589774;27;20047;-40
2022/10/16 03:03:52;;;;;;;1.42;0.60;;;18.30;91.00;;;;;;10592010;27;20083;-41
2022/10/16 03:08:54;;;;;;;2.25;0.70;;;17.50;93.10;;;;;;10580906;28;20148;-41
2022/10/16 03:13:57;;;;;;;5.33;0.70;;;17.20;94.00;;;;;;10579923;28;20071;-40
2022/10/16 03:18:59;;;;;;;1.08;0.70;;;16.90;94.30;;;;;;10586088;27;20784;-39
2022/10/16 03:24:01;;;;;;;2.40;1.30;;;16.60;94.20;;;;;;10588016;27;20096;-38
2022/10/16 03:29:05;;;;;;;1.40;0.65;;;17.30;93.40;;;;;;10592807;27;20144;-38
2022/10/16 03:34:07;;;;;;;4.38;0.55;;;17.30;92.70;;;;;;10594088;27;20062;-40
2022/10/16 03:39:08;;;;;;;3.10;0.90;;;16.60;94.70;;;;;;10594110;27;20055;-39
2022/10/16 03:44:12;;;;;;;5.13;1.00;;;17.00;93.00;;;;;;10587841;27;20124;-40
2022/10/16 03:49:13;;;;;;;3.70;0.68;;;17.30;93.00;;;;;;10578823;28;20111;-41
2022/10/16 03:54:15;;;;;;;1.90;0.50;;;18.10;91.20;;;;;;10578587;27;20435;-40
2022/10/16 03:59:18;;;;;;;1.80;0.93;;;18.00;91.80;;;;;;10584442;27;20521;-40
2022/10/16 04:04:20;;;;;;;1.27;0.30;;;17.80;92.10;;;;;;10577008;28;21103;-41
2022/10/16 04:09:22;;;;;;;1.42;0.70;;;18.70;90.20;;;;;;10593116;27;20071;-40
2022/10/16 04:14:25;;;;;;;4.97;0.68;;;19.20;86.60;;;;;;10578027;27;20058;-40
2022/10/16 04:19:27;;;;;;;0.40;0.32;;;18.20;89.80;;;;;;10578813;27;20060;-40
2022/10/16 04:24:29;;;;;;;0.60;0.57;;;18.40;90.80;;;;;;10585145;27;20563;-39
2022/10/16 04:29:32;;;;;;;3.90;0.88;;;18.20;91.20;;;;;;10577405;27;20515;-42
2022/10/16 04:34:34;;;;;;;4.60;0.85;;;18.10;91.70;;;;;;10579206;27;20134;-42
2022/10/16 04:39:36;;;;;;;6.80;1.30;;;17.40;92.30;;;;;;10596073;27;20116;-41
2022/10/16 04:44:39;;;;;;;1.85;0.50;;;17.00;93.30;;;;;;10593528;27;20491;-41
2022/10/16 04:49:41;;;;;;;3.33;1.10;;;17.10;94.30;;;;;;10587595;27;20101;-39
2022/10/16 04:54:44;;;;;;;1.00;0.50;;;17.20;93.80;;;;;;10587751;27;20043;-38
2022/10/16 04:59:48;;;;;;;5.70;1.98;;;16.70;95.70;;;;;;10588467;27;20048;-38
2022/10/16 05:04:50;;;;;;;3.97;1.10;;;16.90;94.70;;;;;;10587350;27;20047;-38
2022/10/16 05:09:51;;;;;;;4.73;1.80;;;17.40;93.30;;;;;;10588245;27;20455;-40
2022/10/16 05:14:58;;;;;;;1.57;0.73;;;17.40;93.20;;;;;;10604826;27;20127;-39
2022/10/16 05:19:59;;;;;;;0.55;0.40;;;17.80;92.50;;;;;;10592688;27;20626;-39
2022/10/16 05:25:01;;;;;;;3.70;0.70;;;17.80;92.50;;;;;;10595348;27;20046;-40
2022/10/16 05:30:06;;;;;;;5.30;0.90;;;17.60;92.40;;;;;;10601416;28;20074;-39
2022/10/16 05:35:08;;;;;;;1.02;0.50;;;17.60;92.40;;;;;;10580235;28;20089;-40
2022/10/16 05:40:11;;;;;;;2.53;0.90;;;18.60;90.10;;;;;;10574908;28;20105;-40
2022/10/16 05:45:14;;;;;;;1.85;0.70;;;18.10;91.60;;;;;;10584696;28;20043;-39
2022/10/16 05:50:16;;;;;;;1.52;0.70;;;17.70;92.20;;;;;;10576882;28;20056;-40
2022/10/16 05:55:18;;;;;;;3.05;0.70;;;17.80;92.20;;;;;;10575929;28;20054;-39
2022/10/16 06:00:21;;;;;;;4.07;0.67;;;17.40;93.00;;;;;;10583286;28;20471;-40
2022/10/16 06:05:23;;;;;;;8.30;0.85;;;17.30;93.30;;;;;;10575692;28;20067;-40
2022/10/16 06:10:25;;;;;;;6.80;1.00;;;17.10;93.50;;;;;;10575375;28;20690;-40
2022/10/16 06:15:28;;;;;;;3.57;0.67;;;16.60;95.00;;;;;;10574868;28;20527;-39
2022/10/16 06:20:30;;;;;;;4.50;1.00;;;16.50;95.50;;;;;;10580206;28;20054;-40
2022/10/16 06:25:32;;;;;;;4.10;1.00;;;15.80;96.50;;;;;;10577838;28;20043;-40
2022/10/16 06:30:35;;;;;;;5.10;1.00;;;15.60;97.50;;;;;;10583012;27;20055;-39
2022/10/16 06:35:37;;;;;;;2.78;0.73;;;15.70;97.70;;;;;;10582698;27;20504;-40
2022/10/16 06:40:39;;;;;;;6.33;0.80;;;16.30;96.00;;;;;;10580922;27;20051;-40
2022/10/16 06:45:42;;;;;;;4.93;0.90;;;16.10;96.80;;;;;;10596570;27;20051;-40
2022/10/16 06:50:44;;;;;;;4.28;1.02;;;16.70;95.00;;;;;;10606560;27;20108;-40
2022/10/16 06:55:46;;;;;;;1.80;0.67;;;16.00;97.00;;;;;;10599486;27;20429;-39
2022/10/16 07:00:50;;;;;;;3.57;1.20;;;16.80;94.70;;;;;;10597416;27;20158;-36
2022/10/16 07:05:51;;;;;;;4.50;0.95;;;16.80;94.80;;;;;;10588323;27;20488;-40
2022/10/16 07:11:00;;;;;;;3.60;0.93;;;16.30;96.30;;;;;;10589009;27;20094;-40
2022/10/16 07:16:07;;;;;;;8.23;0.90;;;16.00;96.90;;;;;;10593882;27;20544;-40
2022/10/16 07:21:11;;;;;;;4.35;0.68;;;16.90;96.10;;;;;;10582352;27;20079;-38
2022/10/16 07:26:13;;;;;;;5.93;0.95;;;17.00;95.20;;;;;;10587501;27;20103;-39
2022/10/16 07:31:18;;;;;;;5.97;1.33;;;17.10;93.70;;;;;;10606670;27;20047;-38
2022/10/16 07:36:21;;;;;;;4.78;1.52;;;17.20;93.40;;;;;;10569024;27;20385;-40
2022/10/16 07:41:23;;;;;;;9.05;1.30;;;17.10;93.50;;;;;;10597798;27;20591;-40
2022/10/16 07:46:27;;;;;;;2.85;0.95;;;16.70;95.50;;;;;;10599536;27;20038;-39
2022/10/16 07:51:29;;;;;;;11.63;1.00;;;16.80;95.30;;;;;;10592494;27;20770;-41
2022/10/16 07:56:32;;;;;;;3.85;1.52;;;16.10;96.50;;;;;;10593454;27;20510;-39
2022/10/16 08:01:35;;;;;;;4.82;1.20;;;17.00;93.80;;;;;;10587659;27;20058;-40
2022/10/16 08:06:38;;;;;;;9.95;1.67;;;17.00;93.90;;;;;;10583818;27;20097;-40
2022/10/16 08:11:40;;;;;;;5.00;1.10;;;16.60;96.40;;;;;;10568342;27;20048;-40
2022/10/16 08:16:43;;;;;;;4.47;1.07;;;17.00;94.60;;;;;;10577907;27;20084;-41
2022/10/16 08:21:48;;;;;;;5.75;1.15;;;16.60;96.50;;;;;;10590717;27;20484;-40
2022/10/16 08:26:50;;;;;;;5.05;0.80;;;16.50;96.30;;;;;;10585510;27;20384;-40
2022/10/16 08:31:53;;;;;;;8.53;1.27;;;17.20;93.60;;;;;;10588963;27;20118;-41
2022/10/16 08:36:55;;;;;;;5.00;1.20;;;17.00;95.20;;;;;;10578628;27;20058;-39
2022/10/16 08:42:24;;;;;;;6.57;1.20;;;16.90;95.40;;;;;;10575149;28;20043;-40
2022/10/16 08:47:45;;;;;;;7.63;1.67;;;17.80;93.10;;;;;;10585337;27;20071;-41
2022/10/16 08:52:47;;;;;;;13.65;2.15;;;16.80;96.80;;;;;;10580367;27;20540;-41
2022/10/16 08:57:50;;;;;;;10.43;2.73;;;16.00;99.40;;;;;;10581764;27;20286;-40
2022/10/16 09:03:03;;;;;;;10.02;1.42;;;16.00;99.20;;;;;;10577366;27;20588;-40
2022/10/16 09:08:10;;;;;;;;;;;15.90;98.70;;;;;;10585046;27;20130;-39
2022/10/16 09:13:20;;;;;;;7.45;1.75;;;16.10;98.70;;;;;;10580181;27;19955;-39
2022/10/16 09:18:30;;;;;;;9.40;1.70;;;16.10;99.10;;;;;;10575303;27;20497;-40
2022/10/16 09:23:35;;;;;;;5.07;1.15;;;16.80;97.20;;;;;;10579959;28;20104;-39
2022/10/16 09:28:37;;;;;;;8.77;1.65;;;18.30;92.50;;;;;;10581651;28;20047;-40
2022/10/16 09:33:42;;;;;;;8.93;1.13;;;16.80;96.70;;;;;;10574174;28;20044;-40
2022/10/16 09:38:44;;;;;;;14.65;1.73;;;16.90;97.20;;;;;;10575822;28;20052;-39
2022/10/16 09:43:54;;;;;;;23.03;2.80;;;16.80;96.60;;;;;;10580177;28;20475;-41
2022/10/16 09:48:59;;;;;;;5.25;1.23;;;16.30;97.30;;;;;;10564886;28;20054;-40
2022/10/16 09:54:13;;;;;;;7.35;1.63;;;17.40;95.30;;;;;;10578624;28;20051;-42
2022/10/16 09:59:17;;;;;;;14.57;1.75;;;16.80;94.90;;;;;;10568794;28;20125;-41
2022/10/16 10:04:22;;;;;;;15.57;1.95;;;16.80;95.20;;;;;;10589007;27;20082;-38
2022/10/16 10:09:25;;;;;;;14.73;2.58;;;17.50;92.50;;;;;;10580966;27;20075;-43
2022/10/16 10:14:33;;;;;;;13.32;1.83;;;17.00;93.00;;;;;;10590996;27;20048;-38
2022/10/16 10:19:41;;;;;;;8.90;1.90;;;16.80;94.70;;;;;;10584678;27;20147;-40
2022/10/16 10:24:44;;;;;;;11.57;1.70;;;17.30;91.20;;;;;;10581094;27;20044;-42
2022/10/16 10:29:55;;;;;;;13.48;2.33;;;17.40;92.00;;;;;;10594360;27;20043;-40
2022/10/16 10:35:13;;;;;;;14.38;1.65;;;16.90;93.40;;;;;;10583227;27;20072;-41
2022/10/16 10:40:28;;;;;;;5.45;1.20;;;17.50;94.20;;;;;;10579199;27;20459;-40
2022/10/16 10:45:39;;;;;;;16.13;2.28;;;17.40;93.20;;;;;;10579777;27;20085;-40
2022/10/16 10:50:49;;;;;;;12.45;1.67;;;17.10;91.30;;;;;;10579877;27;20113;-40
2022/10/16 10:56:00;;;;;;;11.13;1.50;;;16.90;92.50;;;;;;10587181;27;20082;-38
2022/10/16 11:01:07;;;;;;;8.05;1.38;;;17.40;87.80;;;;;;10592026;27;20078;-40
2022/10/16 11:06:16;;;;;;;8.13;1.50;;;17.10;94.50;;;;;;10585435;27;20079;-41
2022/10/16 11:11:24;;;;;;;11.55;1.30;;;17.20;94.10;;;;;;10589183;27;20133;-40
2022/10/16 11:16:30;;;;;;;8.82;0.98;;;17.70;93.10;;;;;;10578137;27;20040;-39
2022/10/16 11:21:40;;;;;;;10.85;1.48;;;17.80;87.40;;;;;;10575967;27;20135;-41
2022/10/16 11:26:44;;;;;;;10.43;1.35;;;17.20;80.60;;;;;;10579199;27;20130;-47
2022/10/16 11:31:53;;;;;;;17.42;1.88;;;17.40;88.80;;;;;;10578496;27;20071;-42
2022/10/16 11:37:02;;;;;;;6.78;0.95;;;17.30;72.30;;;;;;10581668;27;20043;-40
2022/10/16 11:42:09;;;;;;;13.75;2.20;;;17.80;92.00;;;;;;10579889;27;20542;-43
2022/10/16 11:47:24;;;;;;;10.77;1.25;;;17.60;81.10;;;;;;10582003;27;20055;-40
2022/10/16 11:52:37;;;;;;;10.73;1.48;;;17.30;71.20;;;;;;10586673;27;20051;-41
2022/10/16 11:57:43;;;;;;;6.43;1.38;;;17.30;76.00;;;;;;10578435;27;20072;-41
2022/10/16 12:02:57;;;;;;;10.38;1.88;;;18.10;88.60;;;;;;10574441;27;20075;-40
2022/10/16 12:08:07;;;;;;;12.60;1.73;;;17.90;83.40;;;;;;10584052;27;20074;-40
2022/10/16 12:13:34;;;;;;;9.98;1.80;;;18.20;73.20;;;;;;10578933;27;20131;-40
2022/10/16 12:18:36;;;;;;;10.10;1.25;;;18.30;77.50;;;;;;10582073;27;20079;-40
2022/10/16 12:23:48;;;;;;;14.32;2.35;;;18.30;79.70;;;;;;10578527;27;20052;-40
2022/10/16 12:28:51;;;;;;;2.53;0.90;;;18.20;70.30;;;;;;10568785;27;20054;-40
2022/10/16 12:34:00;;;;;;;9.18;1.45;;;18.30;90.90;;;;;;10580732;27;20551;-39
2022/10/16 12:39:03;;;;;;;9.40;1.35;;;18.60;74.80;;;;;;10587867;27;20604;-42
2022/10/16 12:44:05;;;;;;;6.53;1.13;;;18.50;69.70;;;;;;10588516;27;20070;-41
2022/10/16 12:49:24;;;;;;;10.20;1.67;;;19.20;86.70;;;;;;10598431;27;20146;-40
2022/10/16 12:54:30;;;;;;;8.20;1.77;;;19.10;84.70;;;;;;10587010;27;20054;-40
2022/10/16 12:59:41;;;;;;;10.05;1.20;;;19.20;86.50;;;;;;10591313;27;20063;-43
2022/10/16 13:04:54;;;;;;;11.97;2.30;;;19.30;83.20;;;;;;10584331;27;20083;-40
2022/10/16 13:10:08;;;;;;;5.22;1.42;;;19.70;74.80;;;;;;10574113;28;20047;-40
2022/10/16 13:15:26;;;;;;;13.02;2.10;;;19.70;78.20;;;;;;10584559;27;20553;-39
2022/10/16 13:20:34;;;;;;;7.32;1.30;;;19.80;80.80;;;;;;10577862;27;20093;-41
2022/10/16 13:25:50;;;;;;;5.95;1.27;;;19.70;83.10;;;;;;10573185;28;20135;-41
2022/10/16 13:30:54;;;;;;;3.85;0.80;;;19.70;80.30;;;;;;10584664;28;20090;-41
2022/10/16 13:35:57;;;;;;;10.43;1.33;;;20.20;84.30;;;;;;10576886;27;20450;-40
2022/10/16 13:41:02;;;;;;;4.00;1.17;;;20.50;85.60;;;;;;10581979;27;20048;-39
2022/10/16 13:46:06;;;;;;;10.93;2.30;;;20.90;82.10;;;;;;10582001;27;20051;-38
2022/10/16 13:51:13;;;;;;;9.30;1.60;;;20.90;72.70;;;;;;10586465;27;20056;-40
2022/10/16 13:56:20;;;;;;;14.23;1.90;;;20.70;72.10;;;;;;10583315;27;20039;-42
2022/10/16 14:01:25;;;;;;;8.40;2.00;;;21.30;81.10;;;;;;10585586;27;20063;-40
2022/10/16 14:06:27;;;;;;;7.88;2.13;;;21.20;80.00;;;;;;10580357;27;20489;-38
2022/10/16 14:11:31;;;;;;;9.02;2.35;;;21.20;79.80;;;;;;10582831;27;20064;-39
2022/10/16 14:16:33;;;;;;;9.65;2.20;;;21.50;78.70;;;;;;10582590;27;20101;-39
2022/10/16 14:21:35;;;;;;;19.35;2.83;;;21.50;78.30;;;;;;10583092;27;20150;-40
2022/10/16 14:26:43;;;;;;;;;;;21.40;78.50;;;;;;10583770;27;20122;-40
2022/10/16 14:31:56;;;;;;;11.88;2.90;;;21.70;77.90;;;;;;10581835;27;20391;-39
2022/10/16 14:37:00;;;;;;;8.18;2.15;;;21.80;77.60;;;;;;10583462;27;20044;-40
2022/10/16 14:42:03;;;;;;;6.25;1.92;;;21.80;77.40;;;;;;10580759;27;20101;-39
2022/10/16 14:47:12;;;;;;;9.88;2.53;;;21.80;77.50;;;;;;10579693;27;20752;-40
2022/10/16 14:52:14;;;;;;;8.98;2.38;;;21.80;77.30;;;;;;10600274;27;20126;-40
2022/10/16 14:57:19;;;;;;;;;;;21.90;77.20;;;;;;10591224;27;20131;-39
2022/10/16 15:02:28;;;;;;;9.60;2.45;;;21.90;77.00;;;;;;10589506;27;20022;-40
2022/10/16 15:07:30;;;;;;;4.72;1.95;;;21.90;77.00;;;;;;10589050;27;20059;-40
2022/10/16 15:12:33;;;;;;;6.03;2.20;;;22.20;77.20;;;;;;10589520;27;20036;-39
2022/10/16 15:17:35;;;;;;;8.90;1.63;;;22.00;77.00;;;;;;10592421;27;20124;-40
2022/10/16 15:22:36;;;;;;;6.18;1.77;;;21.90;76.90;;;;;;10594663;27;20082;-39
2022/10/16 15:27:40;;;;;;;5.50;1.88;;;22.00;76.60;;;;;;10590291;27;20043;-41
2022/10/16 15:32:41;;;;;;;6.03;1.65;;;22.00;76.50;;;;;;10591167;27;20058;-40
2022/10/16 15:37:43;;;;;;;3.92;1.75;;;22.00;76.50;;;;;;10581920;27;20035;-41
2022/10/16 15:42:47;;;;;;;;;;;22.00;76.50;;;;;;10602858;27;20055;-40
2022/10/16 15:47:50;;;;;;;6.97;1.95;;;22.10;76.30;;;;;;10589968;27;20009;-38
2022/10/16 15:52:52;;;;;;;10.27;1.50;;;22.00;76.30;;;;;;10595699;27;20103;-39
2022/10/16 15:57:55;;;;;;;;;;;22.00;76.10;;;;;;10601016;27;20476;-38
2022/10/16 16:02:57;;;;;;;3.58;0.90;;;22.00;76.20;;;;;;10591700;27;20022;-40
2022/10/16 16:07:59;;;;;;;4.72;1.45;;;22.00;76.20;;;;;;10582443;27;20047;-39
2022/10/16 16:13:02;;;;;;;;;;;22.00;76.20;;;;;;10593365;27;20430;-41
2022/10/16 16:18:05;;;;;;;9.73;2.85;;;22.00;76.20;;;;;;10578202;27;19920;-40
2022/10/16 16:23:07;;;;;;;4.22;1.20;;;22.00;76.60;;;;;;10569163;27;20047;-40
2022/10/16 16:28:14;;;;;;;7.97;1.75;;;22.00;76.50;;;;;;10567680;28;20043;-41
2022/10/16 16:33:15;;;;;;;9.63;1.77;;;22.00;76.60;;;;;;10569886;27;20127;-39
2022/10/16 16:38:17;;;;;;;5.57;2.35;;;22.10;76.80;;;;;;10564450;28;20464;-39
2022/10/16 16:43:24;;;;;;;11.48;2.13;;;22.10;77.20;;;;;;10565286;28;20039;-38
2022/10/16 16:48:25;;;;;;;13.48;2.58;;;22.10;77.20;;;;;;10575493;27;20102;-40
2022/10/16 16:53:27;;;;;;;13.82;2.28;;;22.10;77.40;;;;;;10563347;28;20040;-40
2022/10/16 16:58:31;;;;;;;11.27;2.42;;;22.00;77.50;;;;;;10554434;28;20117;-38
2022/10/16 17:03:35;;;;;;;21.02;4.05;;;22.00;77.60;;;;;;10559214;27;20098;-39
2022/10/16 17:08:37;;;;;;;20.20;3.63;;;22.10;77.60;;;;;;10565395;27;20101;-38
2022/10/16 17:13:41;;;;;;;16.92;3.00;;;23.40;78.40;;;;;;10558610;27;20580;-39
2022/10/16 17:18:43;;;;;;;13.40;3.90;;;22.00;77.60;;;;;;10562072;27;20135;-41
2022/10/16 17:23:45;;;;;;;17.35;3.00;;;21.90;77.70;;;;;;10570831;27;20337;-40
2022/10/16 17:28:51;;;;;;;;;;;21.90;78.00;;;;;;10562563;28;20040;-39
2022/10/16 17:33:52;;;;;;;16.63;3.17;;;21.90;78.30;;;;;;10570648;28;19971;-41
2022/10/16 17:38:59;;;;;;;9.85;3.22;;;21.90;78.40;;;;;;10563622;28;20416;-40
2022/10/16 17:44:04;;;;;;;15.10;2.92;;;21.90;78.60;;;;;;10564541;28;20051;-34
2022/10/16 17:49:05;;;;;;;10.73;2.83;;;22.00;80.40;;;;;;10562511;28;20047;-41
2022/10/16 17:54:08;;;;;;;17.35;3.08;;;22.50;77.10;;;;;;10575751;28;20047;-43
2022/10/16 17:59:12;;;;;;;21.38;3.22;;;22.80;75.20;;;;;;10560102;28;20618;-36
2022/10/16 18:04:16;;;;;;;17.17;3.13;;;22.90;75.20;;;;;;10561971;28;20043;-40
2022/10/16 18:09:19;;;;;;;13.85;3.05;;;22.90;74.30;;;;;;10557693;28;20039;-39
2022/10/16 18:14:23;;;;;;;12.43;3.30;;;22.60;75.80;;;;;;10567729;28;20123;-43
2022/10/16 18:19:25;;;;;;;11.75;2.28;;;22.40;76.80;;;;;;10566316;28;20134;-40
2022/10/16 18:24:27;;;;;;;15.98;2.35;;;22.30;77.60;;;;;;10567807;27;20134;-40
2022/10/16 18:29:31;;;;;;;11.00;2.50;;;22.20;78.30;;;;;;10577471;27;20051;-40
2022/10/16 18:34:36;;;;;;;11.48;2.85;;;22.10;79.20;;;;;;10577081;27;20116;-43
2022/10/16 18:39:38;;;;;;;9.48;2.30;;;22.10;79.90;;;;;;10570505;28;20122;-42
2022/10/16 18:44:41;;;;;;;15.60;2.58;;;22.00;80.40;;;;;;10580560;27;20055;-42
2022/10/16 18:49:45;;;;;;;10.23;2.42;;;22.00;80.50;;;;;;10566246;27;20040;-44
2022/10/16 18:54:47;;;;;;;7.80;2.92;;;22.00;81.00;;;;;;10560183;27;20055;-43
2022/10/16 18:59:50;;;;;;;7.00;2.30;;;22.00;81.30;;;;;;10570201;27;20090;-43
2022/10/16 19:04:52;;;;;;;7.50;2.10;;;21.90;81.80;;;;;;10574436;27;20105;-42
2022/10/16 19:09:54;;;;;;;16.80;2.88;;;21.90;82.10;;;;;;10569839;27;20462;-40
2022/10/16 19:14:57;;;;;;;9.30;2.50;;;22.00;82.30;;;;;;10579253;27;20105;-38
2022/10/16 19:19:59;;;;;;;11.07;2.03;;;21.90;82.30;;;;;;10584637;27;20360;-41
2022/10/16 19:25:00;;;;;;;7.82;2.53;;;22.10;82.10;;;;;;10575587;27;20047;-41
2022/10/16 19:30:04;;;;;;;10.18;2.60;;;21.80;81.50;;;;;;10576246;27;20130;-39
2022/10/16 19:35:08;;;;;;;13.20;2.65;;;21.90;81.50;;;;;;10574235;27;20134;-40
2022/10/16 19:40:10;;;;;;;20.92;2.75;;;21.90;81.30;;;;;;10575279;27;20047;-40
2022/10/16 19:45:14;;;;;;;15.43;2.65;;;22.00;81.10;;;;;;10572753;27;20449;-40
2022/10/16 19:50:17;;;;;;;12.57;3.15;;;21.90;81.00;;;;;;10580962;27;20499;-40
2022/10/16 19:55:19;;;;;;;15.63;2.95;;;21.90;81.00;;;;;;10570372;27;20048;-43
2022/10/16 20:00:22;;;;;;;24.02;4.78;;;21.80;80.90;;;;;;10570145;27;20048;-40
2022/10/16 20:05:24;;;;;;;24.23;2.88;;;21.90;80.90;;;;;;10571287;27;20569;-38
2022/10/16 20:10:26;;;;;;;16.70;4.28;;;21.90;80.70;;;;;;10570406;28;20043;-40
2022/10/16 20:15:29;;;;;;;17.35;3.97;;;21.90;80.70;;;;;;10569629;28;20039;-43
2022/10/16 20:20:31;;;;;;;19.55;3.08;;;21.80;80.70;;;;;;10573495;27;20090;-43
2022/10/16 20:25:36;;;;;;;14.45;2.78;;;21.80;80.60;;;;;;10574393;27;20056;-40
2022/10/16 20:30:40;;;;;;;13.73;3.40;;;21.80;80.60;;;;;;10574396;27;20116;-39
2022/10/16 20:35:45;;;;;;;12.10;3.35;;;21.90;80.40;;;;;;10565548;28;20126;-40
2022/10/16 20:40:48;;;;;;;17.73;3.78;;;21.80;80.40;;;;;;10568315;28;20142;-40
2022/10/16 20:45:59;;;;;;;17.30;4.20;;;21.80;80.50;;;;;;10568798;27;20055;-41
2022/10/16 20:51:11;;;;;;;21.87;5.10;;;21.80;80.50;;;;;;10555975;27;20048;-43
2022/10/16 20:56:14;;;;;;;9.93;3.10;;;21.80;80.40;;;;;;10567398;27;20084;-42
2022/10/16 21:01:19;;;;;;;17.83;4.03;;;21.80;80.30;;;;;;10565418;28;20040;-38
2022/10/16 21:06:22;;;;;;;11.80;2.78;;;21.80;80.40;;;;;;10568868;28;20044;-42
2022/10/16 21:11:26;;;;;;;15.18;3.28;;;21.70;80.30;;;;;;10557159;28;20043;-42
2022/10/16 21:16:30;;;;;;;16.75;3.03;;;21.70;80.40;;;;;;10581150;27;20043;-43
2022/10/16 21:21:34;;;;;;;12.23;2.60;;;21.70;80.40;;;;;;10585290;27;20124;-42
2022/10/16 21:26:36;;;;;;;13.57;3.35;;;21.70;80.30;;;;;;10578383;27;20047;-39
2022/10/16 21:31:39;;;;;;;11.68;3.20;;;21.70;80.30;;;;;;10571694;28;20071;-43
2022/10/16 21:36:42;;;;;;;18.55;2.58;;;21.70;80.90;;;;;;10573748;28;20082;-41
2022/10/16 21:41:46;;;;;;;8.98;2.42;;;21.60;80.50;;;;;;10569294;28;20054;-41
2022/10/16 21:46:50;;;;;;;20.38;3.53;;;21.70;80.60;;;;;;10548487;28;20063;-42
2022/10/16 21:51:52;;;;;;;11.32;2.53;;;21.70;80.60;;;;;;10558551;28;20052;-40
2022/10/16 21:56:54;;;;;;;7.95;2.20;;;21.70;80.40;;;;;;10572446;27;20056;-42
2022/10/16 22:01:59;;;;;;;9.35;1.98;;;21.70;80.30;;;;;;10574143;27;20620;-42
2022/10/16 22:07:01;;;;;;;11.75;2.70;;;21.60;80.30;;;;;;10586958;27;20069;-41
2022/10/16 22:12:03;;;;;;;8.05;1.60;;;21.60;80.30;;;;;;10572083;27;20109;-44
2022/10/16 22:17:06;;;;;;;10.55;2.65;;;21.60;80.30;;;;;;10572102;27;20452;-40
2022/10/16 22:22:08;;;;;;;7.30;2.03;;;21.50;80.10;;;;;;10574261;27;20089;-42
2022/10/16 22:27:09;;;;;;;9.63;2.33;;;20.90;79.90;;;;;;10569625;27;20147;-40
2022/10/16 22:32:12;;;;;;;5.03;1.88;;;21.60;80.10;;;;;;10574093;27;20082;-45
2022/10/16 22:37:14;;;;;;;6.65;2.10;;;21.80;80.20;;;;;;10565989;27;20418;-41
2022/10/16 22:42:16;;;;;;;7.15;1.42;;;21.50;80.10;;;;;;10567551;28;20040;-41
2022/10/16 22:47:20;;;;;;;6.03;1.95;;;22.20;80.60;;;;;;10579728;27;20449;-42
2022/10/16 22:52:22;;;;;;;5.32;1.38;;;21.50;80.10;;;;;;10560995;27;20522;-40
2022/10/16 22:57:24;;;;;;;7.28;1.60;;;21.50;80.20;;;;;;10585469;27;20039;-45
2022/10/16 23:02:27;;;;;;;2.63;0.90;;;21.50;80.30;;;;;;10570679;27;20052;-41
2022/10/16 23:07:29;;;;;;;5.32;2.22;;;20.70;79.70;;;;;;10561261;27;20084;-41
2022/10/16 23:12:31;;;;;;;5.07;1.40;;;21.50;80.20;;;;;;10562413;27;20075;-43
2022/10/16 23:17:34;;;;;;;3.30;1.13;;;21.50;80.20;;;;;;10553989;27;20050;-42
2022/10/16 23:22:36;;;;;;;5.55;1.30;;;21.50;80.20;;;;;;10570448;27;20479;-40
2022/10/16 23:27:38;;;;;;;2.55;1.40;;;21.50;80.30;;;;;;10567816;27;20087;-45
2022/10/16 23:32:42;;;;;;;2.25;1.08;;;21.50;80.10;;;;;;10562100;28;20052;-41
2022/10/16 23:37:44;;;;;;;2.55;1.02;;;21.50;80.20;;;;;;10577206;27;20498;-43
2022/10/16 23:42:45;;;;;;;2.10;0.70;;;21.50;80.30;;;;;;10562323;27;20040;-39
2022/10/16 23:47:49;;;;;;;1.67;0.70;;;21.40;80.30;;;;;;10561230;27;20095;-42
2022/10/16 23:52:50;;;;;;;1.77;1.20;;;21.40;80.50;;;;;;10575937;27;20081;-44
2022/10/16 23:57:52;;;;;;;2.90;0.95;;;21.40;80.40;;;;;;10573262;27;20050;-45
